Time;durP1;ratioP1;P1;durP2;ratioP2;P2;SDS_P1;SDS_P2;PMS_P1;PMS_P2;Temp;Humidity;BMP_temperature;BMP_pressure;BME280_temperature;BME280_humidity;BME280_pressure;Samples;Min_cycle;Max_cycle;Signal;HPM_P1;HPM_P2
2021/05/11 00:01:09;;;;;;;1.60;0.98;;;17.60;58.80;;;;;;5048744;28;20026;-86
2021/05/11 00:03:35;;;;;;;4.75;1.30;;;17.60;58.90;;;;;;5050055;28;20578;-88
2021/05/11 00:06:01;;;;;;;3.42;1.15;;;17.60;59.00;;;;;;5040023;28;20463;-87
2021/05/11 00:08:26;;;;;;;4.63;1.30;;;17.50;59.00;;;;;;5034940;28;20079;-89
2021/05/11 00:10:52;;;;;;;2.72;1.10;;;17.50;59.00;;;;;;5051093;28;20458;-89
2021/05/11 00:13:18;;;;;;;1.80;1.13;;;17.50;59.20;;;;;;5015438;28;20503;-89
2021/05/11 00:15:43;;;;;;;1.85;0.90;;;17.40;59.30;;;;;;5045949;28;20075;-89
2021/05/11 00:18:10;;;;;;;3.13;0.90;;;17.40;59.50;;;;;;5022361;28;20052;-89
2021/05/11 00:20:36;;;;;;;1.45;0.80;;;17.30;59.60;;;;;;5015441;28;20476;-89
2021/05/11 00:23:02;;;;;;;1.70;1.00;;;17.30;59.60;;;;;;5033191;28;20415;-87
2021/05/11 00:25:28;;;;;;;2.42;0.90;;;17.30;59.80;;;;;;5034469;28;20029;-88
2021/05/11 00:27:53;;;;;;;1.95;1.17;;;17.30;59.90;;;;;;5033831;28;20017;-89
2021/05/11 00:30:19;;;;;;;1.67;1.02;;;17.30;60.10;;;;;;5052124;28;20555;-89
2021/05/11 00:32:45;;;;;;;1.30;1.00;;;17.20;60.10;;;;;;5038736;28;20025;-90
2021/05/11 00:35:11;;;;;;;2.72;1.45;;;17.20;60.30;;;;;;5041610;28;20023;-89
2021/05/11 00:37:37;;;;;;;2.15;1.20;;;17.20;60.40;;;;;;5039748;28;20033;-89
2021/05/11 00:40:05;;;;;;;3.17;1.25;;;17.10;60.60;;;;;;5043937;28;20043;-89
2021/05/11 00:42:30;;;;;;;2.72;1.20;;;17.00;60.80;;;;;;5028863;28;20036;-89
2021/05/11 00:44:56;;;;;;;2.17;1.30;;;17.00;61.20;;;;;;5052959;28;20025;-91
2021/05/11 00:47:23;;;;;;;2.35;1.20;;;16.80;61.40;;;;;;5054225;28;20021;-92
2021/05/11 00:49:49;;;;;;;3.00;1.17;;;16.80;61.50;;;;;;5054046;28;20154;-92
2021/05/11 00:52:15;;;;;;;1.48;1.05;;;16.80;61.60;;;;;;5041375;28;20048;-92
2021/05/11 00:54:41;;;;;;;3.10;1.20;;;16.80;61.70;;;;;;5053411;28;20416;-92
2021/05/11 00:57:06;;;;;;;3.50;1.35;;;16.70;61.80;;;;;;5053744;28;20017;-90
2021/05/11 00:59:32;;;;;;;3.42;1.48;;;16.70;61.90;;;;;;5036133;28;20026;-90
2021/05/11 01:02:01;;;;;;;2.35;1.27;;;16.60;62.20;;;;;;5025055;28;20513;-91
2021/05/11 01:04:27;;;;;;;2.42;1.20;;;16.60;62.40;;;;;;5037300;28;20060;-90
2021/05/11 01:06:55;;;;;;;3.97;1.50;;;16.50;62.40;;;;;;5033582;28;20056;-89
2021/05/11 01:09:22;;;;;;;3.33;1.40;;;16.50;62.80;;;;;;5024318;28;20029;-88
2021/05/11 01:11:48;;;;;;;2.25;1.48;;;16.50;62.90;;;;;;5043878;28;20035;-88
2021/05/11 01:14:14;;;;;;;2.00;1.23;;;16.50;62.90;;;;;;5035912;28;20120;-87
2021/05/11 01:16:41;;;;;;;4.47;1.50;;;16.40;62.90;;;;;;5014785;28;20028;-88
2021/05/11 01:24:10;;;;;;;3.40;1.70;;;16.30;63.60;;;;;;5036795;28;20033;-89
2021/05/11 01:45:47;;;;;;;3.95;1.80;;;16.10;64.70;;;;;;5034412;28;20397;-88
2021/05/11 01:48:13;;;;;;;2.22;1.42;;;16.10;64.80;;;;;;5031474;28;20032;-88
2021/05/11 01:53:33;;;;;;;2.88;1.60;;;16.00;65.00;;;;;;5041357;28;20127;-89
2021/05/11 01:56:07;;;;;;;3.33;1.50;;;16.10;65.10;;;;;;5030782;28;20041;-89
2021/05/11 02:23:02;;;;;;;4.15;2.55;;;15.90;67.20;;;;;;5034700;28;20037;-88
2021/05/11 02:25:27;;;;;;;5.38;2.40;;;15.80;68.00;;;;;;5047417;28;20112;-88
2021/05/11 02:27:53;;;;;;;4.50;2.10;;;15.80;67.90;;;;;;5028359;28;20121;-87
2021/05/11 02:30:19;;;;;;;3.88;2.35;;;15.90;67.60;;;;;;5037552;28;20120;-88
2021/05/11 02:32:45;;;;;;;3.83;2.20;;;16.00;67.30;;;;;;5019529;28;20029;-89
2021/05/11 02:35:13;;;;;;;6.65;2.72;;;16.00;67.20;;;;;;5031959;28;20043;-89
2021/05/11 02:37:38;;;;;;;3.20;1.75;;;16.00;67.20;;;;;;5029309;28;20021;-89
2021/05/11 02:40:10;;;;;;;3.78;2.15;;;16.10;67.00;;;;;;5040784;28;20040;-89
2021/05/11 02:42:38;;;;;;;3.47;2.45;;;16.00;67.40;;;;;;5031334;28;20029;-88
2021/05/11 02:45:06;;;;;;;2.88;2.33;;;16.00;67.40;;;;;;5032009;28;20544;-89
2021/05/11 02:47:32;;;;;;;4.95;2.72;;;16.00;67.40;;;;;;5033051;28;20025;-89
2021/05/11 02:50:04;;;;;;;5.10;2.80;;;16.00;67.60;;;;;;5038212;28;20028;-89
2021/05/11 02:52:30;;;;;;;4.50;2.58;;;16.00;67.70;;;;;;5013889;28;20029;-89
2021/05/11 02:54:55;;;;;;;5.45;2.78;;;16.00;68.00;;;;;;5025510;28;20017;-89
2021/05/11 02:57:21;;;;;;;5.05;3.00;;;15.90;68.40;;;;;;5050567;28;20473;-88
2021/05/11 02:59:46;;;;;;;5.45;3.30;;;15.80;68.80;;;;;;5042666;28;20455;-88
2021/05/11 03:02:12;;;;;;;3.53;2.40;;;15.80;69.30;;;;;;5050210;28;20127;-88
2021/05/11 03:04:38;;;;;;;4.75;2.35;;;15.80;69.20;;;;;;5030860;28;20024;-89
2021/05/11 03:07:04;;;;;;;4.10;2.80;;;15.80;69.10;;;;;;5013239;28;20104;-89
2021/05/11 03:09:29;;;;;;;3.72;2.53;;;15.80;69.20;;;;;;5048025;28;20104;-89
2021/05/11 03:11:56;;;;;;;4.07;2.42;;;15.80;69.10;;;;;;5012990;28;20067;-89
2021/05/11 03:14:21;;;;;;;4.95;3.13;;;15.80;69.10;;;;;;5031067;28;20545;-89
2021/05/11 03:16:49;;;;;;;4.75;2.92;;;15.80;69.40;;;;;;5013872;28;20177;-88
2021/05/11 03:19:14;;;;;;;4.00;2.60;;;15.80;69.60;;;;;;5016180;28;20034;-88
2021/05/11 03:21:40;;;;;;;3.47;2.47;;;15.80;69.40;;;;;;5029898;28;20083;-89
2021/05/11 03:24:08;;;;;;;4.32;2.50;;;15.80;69.20;;;;;;5048830;28;20047;-86
2021/05/11 03:26:33;;;;;;;3.70;2.30;;;15.80;69.00;;;;;;5031460;28;20021;-86
2021/05/11 03:28:59;;;;;;;4.20;2.50;;;15.90;68.80;;;;;;5035468;28;20036;-85
2021/05/11 03:31:24;;;;;;;3.10;2.10;;;15.90;68.70;;;;;;5031637;28;20022;-88
2021/05/11 03:33:50;;;;;;;2.55;1.70;;;15.90;68.60;;;;;;5043734;28;20040;-89
2021/05/11 03:36:15;;;;;;;3.65;1.85;;;16.00;68.40;;;;;;5047044;28;20024;-89
2021/05/11 03:38:41;;;;;;;3.15;2.00;;;16.00;68.30;;;;;;5050202;28;20017;-88
2021/05/11 03:41:07;;;;;;;3.47;2.40;;;16.00;68.20;;;;;;5043028;28;20507;-88
2021/05/11 03:43:49;;;;;;;3.28;2.20;;;16.00;68.30;;;;;;5020512;28;20030;-88
2021/05/11 03:46:14;;;;;;;3.83;1.83;;;16.00;68.30;;;;;;5018572;28;20030;-88
2021/05/11 03:48:40;;;;;;;3.17;2.00;;;16.10;68.20;;;;;;5030896;28;20028;-90
2021/05/11 03:51:06;;;;;;;3.22;2.13;;;16.00;68.10;;;;;;5038977;28;20106;-89
2021/05/11 03:53:34;;;;;;;3.13;2.05;;;16.10;68.10;;;;;;5032118;28;20388;-89
2021/05/11 03:56:00;;;;;;;3.35;1.98;;;16.10;68.00;;;;;;5032894;28;20018;-89
2021/05/11 03:58:27;;;;;;;4.05;2.03;;;16.10;68.00;;;;;;5030945;28;20494;-88
2021/05/11 04:00:52;;;;;;;4.00;2.30;;;16.10;67.90;;;;;;5042578;28;20392;-89
2021/05/11 04:03:18;;;;;;;3.22;2.20;;;16.10;67.90;;;;;;5036492;28;20021;-90
2021/05/11 04:05:46;;;;;;;3.45;2.15;;;16.20;67.90;;;;;;5020922;28;20022;-88
2021/05/11 04:08:25;;;;;;;2.67;1.85;;;16.10;67.70;;;;;;5012366;28;20451;-87
2021/05/11 04:10:57;;;;;;;3.00;2.22;;;16.20;67.80;;;;;;5027763;28;20536;-90
2021/05/11 04:13:56;;;;;;;;;;;16.20;67.60;;;;;;5054199;28;20032;-88
2021/05/11 04:18:47;;;;;;;3.53;2.20;;;16.20;67.50;;;;;;5053715;28;20086;-88
2021/05/11 04:21:13;;;;;;;3.38;2.05;;;16.20;67.50;;;;;;5038842;28;20037;-90
2021/05/11 04:23:38;;;;;;;2.88;2.17;;;16.30;67.40;;;;;;5015678;28;20026;-87
2021/05/11 04:26:04;;;;;;;3.85;1.92;;;16.30;67.30;;;;;;5045234;28;20442;-87
2021/05/11 04:28:29;;;;;;;2.58;2.08;;;16.30;68.00;;;;;;5052757;28;20053;-86
2021/05/11 04:30:55;;;;;;;3.08;2.03;;;16.30;67.30;;;;;;5043023;28;20033;-86
2021/05/11 04:33:21;;;;;;;3.25;2.10;;;16.20;67.30;;;;;;5052211;28;20036;-85
2021/05/11 04:35:46;;;;;;;3.25;2.20;;;16.30;67.40;;;;;;5031040;28;20025;-86
2021/05/11 04:38:12;;;;;;;5.35;2.40;;;16.20;67.60;;;;;;5016016;28;20037;-89
2021/05/11 04:40:37;;;;;;;4.38;2.60;;;16.20;67.70;;;;;;5047802;28;20032;-88
2021/05/11 04:43:05;;;;;;;3.13;2.20;;;16.10;67.80;;;;;;5034658;28;20025;-88
2021/05/11 04:45:33;;;;;;;5.03;2.35;;;16.20;67.80;;;;;;5021816;28;20398;-87
2021/05/11 04:48:00;;;;;;;3.53;2.13;;;16.20;67.80;;;;;;5020905;28;20056;-88
2021/05/11 04:50:29;;;;;;;3.50;2.50;;;16.20;67.70;;;;;;5026954;28;20081;-86
2021/05/11 04:52:57;;;;;;;3.13;2.42;;;16.20;67.90;;;;;;5047559;28;20149;-87
2021/05/11 04:55:23;;;;;;;4.28;2.50;;;16.20;68.10;;;;;;5033736;28;20036;-87
2021/05/11 04:57:48;;;;;;;4.47;2.20;;;16.10;68.20;;;;;;5052166;28;20037;-88
2021/05/11 05:00:16;;;;;;;4.38;2.55;;;16.10;68.20;;;;;;5049815;28;20581;-87
2021/05/11 05:02:44;;;;;;;4.43;2.65;;;16.10;68.20;;;;;;5031661;28;20419;-88
2021/05/11 05:05:11;;;;;;;4.18;2.42;;;16.10;68.20;;;;;;5051189;28;20019;-88
2021/05/11 05:07:37;;;;;;;3.35;2.00;;;16.10;68.20;;;;;;5024698;28;20025;-88
2021/05/11 05:10:04;;;;;;;4.05;2.45;;;16.20;68.00;;;;;;5044608;28;20017;-89
2021/05/11 05:12:30;;;;;;;3.08;2.40;;;16.20;68.00;;;;;;5050873;28;20538;-88
2021/05/11 05:14:55;;;;;;;4.63;2.88;;;16.20;68.00;;;;;;5053613;28;20033;-88
2021/05/11 05:17:21;;;;;;;4.07;2.85;;;16.20;68.10;;;;;;5051938;28;20495;-87
2021/05/11 05:19:47;;;;;;;3.50;2.45;;;16.20;68.20;;;;;;5014526;28;20022;-88
2021/05/11 05:22:12;;;;;;;4.47;2.47;;;16.20;68.10;;;;;;5050557;28;20065;-88
2021/05/11 05:24:43;;;;;;;6.57;2.95;;;16.20;68.10;;;;;;5051979;28;20075;-88
2021/05/11 05:27:18;;;;;;;5.20;2.60;;;16.20;69.20;;;;;;5028027;28;20018;-88
2021/05/11 05:29:43;;;;;;;5.53;2.42;;;16.20;68.50;;;;;;5033605;28;20387;-88
2021/05/11 05:32:09;;;;;;;3.80;2.30;;;16.30;68.40;;;;;;5038185;28;20025;-87
2021/05/11 05:34:35;;;;;;;3.85;2.03;;;16.30;68.20;;;;;;5017944;28;20112;-85
2021/05/11 05:37:00;;;;;;;4.18;2.22;;;16.40;68.10;;;;;;5035849;28;20448;-87
2021/05/11 05:39:34;;;;;;;5.03;3.10;;;16.40;68.10;;;;;;5050609;28;20071;-88
2021/05/11 05:42:00;;;;;;;3.30;2.10;;;16.40;68.50;;;;;;5049336;28;20079;-88
2021/05/11 05:44:26;;;;;;;3.83;2.53;;;16.30;68.60;;;;;;5021051;28;20124;-89
2021/05/11 05:46:52;;;;;;;4.72;2.65;;;16.30;69.10;;;;;;5022982;28;20120;-87
2021/05/11 05:49:17;;;;;;;4.32;2.60;;;16.20;69.10;;;;;;5050910;28;20042;-88
2021/05/11 05:51:46;;;;;;;4.28;2.40;;;16.20;69.30;;;;;;5050640;28;20048;-89
2021/05/11 05:54:12;;;;;;;3.42;2.30;;;16.20;69.40;;;;;;5032967;28;20044;-87
2021/05/11 05:56:37;;;;;;;4.72;2.33;;;16.20;69.60;;;;;;5038076;28;20143;-87
2021/05/11 05:59:03;;;;;;;3.75;2.30;;;16.20;70.00;;;;;;5046465;28;20120;-89
2021/05/11 06:01:29;;;;;;;3.65;2.50;;;16.10;70.00;;;;;;5050023;28;20033;-87
2021/05/11 06:04:12;;;;;;;3.00;2.38;;;16.20;69.90;;;;;;5052116;28;20021;-88
2021/05/11 06:06:38;;;;;;;5.90;2.47;;;16.20;70.00;;;;;;5024457;28;20043;-89
2021/05/11 06:09:14;;;;;;;5.80;3.08;;;16.30;69.90;;;;;;5033954;28;20101;-89
2021/05/11 06:11:50;;;;;;;5.70;3.30;;;16.30;70.30;;;;;;5037842;28;20094;-89
2021/05/11 06:19:25;;;;;;;3.78;2.63;;;16.40;70.00;;;;;;5049983;28;20036;-89
2021/05/11 06:21:50;;;;;;;5.57;2.80;;;16.50;70.00;;;;;;5045573;28;20037;-88
2021/05/11 06:24:16;;;;;;;5.88;3.15;;;16.50;69.90;;;;;;5045317;28;20013;-88
2021/05/11 06:26:43;;;;;;;4.65;2.53;;;16.50;70.00;;;;;;5044971;28;20029;-86
2021/05/11 06:29:10;;;;;;;6.05;3.13;;;16.50;69.80;;;;;;5031826;28;20032;-91
2021/05/11 06:31:35;;;;;;;4.60;2.63;;;16.50;70.00;;;;;;5027860;28;20112;-88
2021/05/11 06:34:03;;;;;;;3.67;2.50;;;16.60;70.00;;;;;;5040510;28;20109;-88
2021/05/11 06:36:29;;;;;;;5.82;3.90;;;16.70;69.90;;;;;;5036184;28;20245;-87
2021/05/11 06:38:54;;;;;;;7.82;3.67;;;16.60;70.30;;;;;;5024587;28;20017;-88
2021/05/11 06:41:20;;;;;;;5.05;3.42;;;16.70;70.40;;;;;;5047386;28;20116;-89
2021/05/11 06:43:55;;;;;;;5.55;3.83;;;16.80;70.60;;;;;;5028141;28;20028;-89
2021/05/11 06:54:05;;;;;;;5.30;3.15;;;17.00;69.90;;;;;;5049855;28;20442;-87
2021/05/11 06:56:31;;;;;;;6.10;3.00;;;17.10;69.70;;;;;;5049642;28;20037;-86
2021/05/11 06:58:57;;;;;;;5.60;2.80;;;17.10;69.40;;;;;;5026045;28;20079;-86
2021/05/11 07:01:22;;;;;;;4.45;2.42;;;17.20;69.30;;;;;;5050270;28;20045;-87
2021/05/11 07:03:48;;;;;;;4.63;2.58;;;17.30;69.70;;;;;;5048061;28;20017;-88
2021/05/11 07:06:14;;;;;;;6.85;4.05;;;17.50;68.80;;;;;;5046486;28;20384;-87
2021/05/11 07:08:44;;;;;;;4.05;2.60;;;17.70;68.30;;;;;;5046620;28;20029;-85
2021/05/11 07:13:56;;;;;;;5.63;3.08;;;18.50;66.70;;;;;;4994005;28;20049;-86
2021/05/11 07:16:21;;;;;;;4.82;2.50;;;18.70;65.00;;;;;;5048420;28;20030;-86
2021/05/11 07:18:47;;;;;;;5.30;3.03;;;19.50;64.00;;;;;;5040045;28;20025;-86
2021/05/11 07:21:12;;;;;;;4.35;2.50;;;20.00;63.10;;;;;;5049636;28;20033;-86
2021/05/11 07:23:38;;;;;;;3.72;2.30;;;20.40;62.00;;;;;;5044149;28;20463;-86
2021/05/11 07:26:12;;;;;;;4.43;2.40;;;20.70;61.20;;;;;;5021010;28;20040;-86
2021/05/11 07:31:27;;;;;;;4.10;2.30;;;20.80;59.50;;;;;;5046954;28;20122;-86
2021/05/11 07:33:54;;;;;;;3.70;2.80;;;20.60;60.00;;;;;;5039551;28;20674;-85
2021/05/11 07:36:20;;;;;;;5.43;2.88;;;20.40;60.00;;;;;;5042480;28;20658;-86
2021/05/11 07:38:47;;;;;;;4.53;2.05;;;20.40;59.90;;;;;;5036969;28;20037;-86
2021/05/11 07:41:14;;;;;;;2.80;2.13;;;20.50;60.00;;;;;;5038332;28;20055;-86
2021/05/11 07:43:43;;;;;;;3.50;2.20;;;20.80;59.60;;;;;;5044885;28;20040;-86
2021/05/11 07:46:22;;;;;;;3.72;2.10;;;21.10;59.00;;;;;;5051080;28;20028;-86
2021/05/11 08:02:39;;;;;;;5.25;2.92;;;21.40;57.40;;;;;;5034483;28;20420;-86
2021/05/11 08:05:14;;;;;;;3.85;2.20;;;21.50;56.40;;;;;;5043529;28;20029;-87
2021/05/11 08:10:33;;;;;;;7.00;3.15;;;21.10;56.40;;;;;;5047021;28;20055;-86
2021/05/11 08:15:52;;;;;;;3.67;1.92;;;20.60;57.20;;;;;;5045100;28;20515;-86
2021/05/11 08:28:44;;;;;;;6.30;3.53;;;20.20;57.80;;;;;;5045683;28;20438;-86
2021/05/11 08:31:10;;;;;;;6.18;3.67;;;20.00;58.90;;;;;;5033405;28;20569;-86
2021/05/11 08:33:36;;;;;;;5.93;3.13;;;19.70;59.80;;;;;;5034242;28;20047;-85
2021/05/11 08:36:01;;;;;;;5.78;3.30;;;19.50;60.60;;;;;;5051063;28;20395;-86
2021/05/11 08:38:27;;;;;;;3.97;2.55;;;19.30;61.40;;;;;;5042696;28;20034;-86
2021/05/11 08:40:53;;;;;;;6.75;4.03;;;19.20;61.90;;;;;;5032437;28;20068;-84
2021/05/11 08:43:36;;;;;;;3.03;2.25;;;19.20;62.50;;;;;;5045211;28;20034;-85
2021/05/11 08:46:07;;;;;;;4.40;2.15;;;19.10;62.50;;;;;;5045156;28;20099;-85
2021/05/11 08:48:34;;;;;;;3.80;2.72;;;19.10;62.50;;;;;;5051004;28;20033;-85
2021/05/11 08:51:08;;;;;;;4.43;2.60;;;19.00;62.80;;;;;;5050343;28;20021;-86
2021/05/11 09:07:35;;;;;;;5.28;3.47;;;18.80;63.30;;;;;;5045198;28;20037;-86
2021/05/11 10:27:14;;;;;;;7.07;2.70;;;19.70;61.90;;;;;;5041369;28;20039;-87
2021/05/11 10:39:39;;;;;;;3.30;1.77;;;21.10;56.50;;;;;;5040898;28;20021;-86
2021/05/11 10:46:26;;;;;;;3.85;2.03;;;21.20;54.10;;;;;;5038823;28;20036;-87
2021/05/11 10:48:18;;;;;;;2.90;1.70;;;21.50;53.70;;;;;;5038869;28;20033;-87
2021/05/11 10:51:01;;;;;;;3.20;1.80;;;21.70;52.90;;;;;;5035631;28;20043;-87
2021/05/11 10:53:42;;;;;;;3.78;1.50;;;21.70;52.30;;;;;;5032718;28;20139;-87
2021/05/11 10:59:17;;;;;;;1.98;0.93;;;22.00;51.80;;;;;;5043392;28;20427;-87
2021/05/11 11:01:50;;;;;;;2.00;1.00;;;22.00;51.10;;;;;;5044347;28;20053;-88
2021/05/11 11:04:16;;;;;;;;;;;22.20;50.40;;;;;;5030184;28;20022;-87
2021/05/11 11:06:58;;;;;;;2.20;1.00;;;22.20;50.00;;;;;;5038907;28;19909;-87
2021/05/11 11:09:27;;;;;;;1.95;1.00;;;22.20;50.00;;;;;;5027112;28;20033;-87
2021/05/11 11:11:53;;;;;;;6.53;1.75;;;22.10;50.10;;;;;;5043520;28;20070;-86
2021/05/11 11:14:19;;;;;;;3.10;1.33;;;22.20;49.20;;;;;;5049474;28;20033;-87
2021/05/11 11:16:45;;;;;;;1.55;1.00;;;22.10;49.10;;;;;;5040648;28;20044;-86
2021/05/11 11:19:13;;;;;;;1.80;1.02;;;22.10;49.40;;;;;;5037874;28;20547;-88
2021/05/11 11:24:34;;;;;;;2.45;1.30;;;22.00;49.20;;;;;;5053116;28;20036;-86
2021/05/11 11:26:59;;;;;;;3.10;1.23;;;21.90;49.40;;;;;;5021170;28;20103;-85
2021/05/11 11:29:26;;;;;;;2.90;1.38;;;21.80;49.70;;;;;;5041729;28;20407;-86
2021/05/11 11:31:54;;;;;;;3.42;1.30;;;21.70;50.10;;;;;;5021820;28;20032;-87
2021/05/11 11:34:23;;;;;;;3.22;1.85;;;21.60;50.20;;;;;;5022410;28;20065;-85
2021/05/11 11:36:59;;;;;;;2.70;1.60;;;21.50;49.80;;;;;;5040792;28;20021;-85
2021/05/11 11:39:29;;;;;;;2.80;1.50;;;21.30;50.20;;;;;;5044985;28;20100;-84
2021/05/11 11:42:01;;;;;;;3.50;1.40;;;21.10;50.40;;;;;;5042769;28;20464;-86
2021/05/11 11:44:30;;;;;;;1.73;1.25;;;21.10;50.60;;;;;;5036003;28;20017;-85
2021/05/11 11:47:04;;;;;;;2.55;1.30;;;20.90;50.60;;;;;;5041541;28;20104;-86
2021/05/11 11:49:32;;;;;;;2.03;1.30;;;20.80;51.00;;;;;;5040760;28;20108;-87
2021/05/11 11:52:12;;;;;;;3.47;1.40;;;20.80;51.20;;;;;;5044576;28;20057;-86
2021/05/11 11:54:45;;;;;;;1.85;1.02;;;20.80;51.30;;;;;;5024017;28;20045;-85
2021/05/11 12:00:17;;;;;;;2.15;1.38;;;20.60;51.40;;;;;;5042046;28;20045;-85
2021/05/11 12:02:59;;;;;;;2.83;1.30;;;20.50;51.70;;;;;;5042023;28;20026;-86
2021/05/11 12:05:31;;;;;;;3.50;1.75;;;20.50;52.00;;;;;;5040731;28;20029;-86
2021/05/11 12:10:48;;;;;;;4.25;1.90;;;20.20;52.60;;;;;;5041697;28;20033;-87
2021/05/11 12:13:19;;;;;;;2.47;1.52;;;20.20;53.00;;;;;;5039304;28;20167;-85
2021/05/11 12:16:05;;;;;;;4.18;1.83;;;20.00;53.10;;;;;;5041844;28;20112;-86
2021/05/11 12:18:32;;;;;;;4.25;2.00;;;19.80;53.90;;;;;;5046912;28;20121;-86
2021/05/11 12:21:05;;;;;;;3.03;1.80;;;19.50;54.70;;;;;;5043553;28;20018;-86
2021/05/11 12:23:32;;;;;;;3.50;2.00;;;19.40;55.70;;;;;;5039794;28;20436;-86
2021/05/11 12:26:00;;;;;;;3.60;1.80;;;19.20;57.00;;;;;;5041529;28;20017;-88
2021/05/11 12:28:30;;;;;;;2.92;1.75;;;19.00;58.20;;;;;;5045033;28;20034;-85
2021/05/11 12:30:56;;;;;;;3.63;2.20;;;18.60;59.80;;;;;;5041569;28;20583;-85
2021/05/11 12:33:37;;;;;;;3.30;2.10;;;18.30;61.60;;;;;;5042713;28;20032;-85
2021/05/11 12:36:21;;;;;;;4.68;2.35;;;18.10;62.60;;;;;;5041728;28;20017;-85
2021/05/11 12:38:51;;;;;;;5.68;2.20;;;17.90;63.90;;;;;;5046357;28;20021;-84
2021/05/11 12:41:43;;;;;;;3.63;2.15;;;17.80;64.10;;;;;;5025826;28;20037;-85
2021/05/11 12:44:29;;;;;;;2.45;1.60;;;18.00;64.10;;;;;;5022588;28;20475;-86
2021/05/11 12:47:00;;;;;;;3.25;1.95;;;18.00;63.90;;;;;;5039598;28;20113;-86
2021/05/11 12:49:26;;;;;;;2.70;1.88;;;18.10;63.60;;;;;;5040671;28;20017;-84
2021/05/11 12:51:53;;;;;;;2.40;1.70;;;18.30;63.50;;;;;;5041313;28;20022;-84
2021/05/11 12:54:23;;;;;;;3.55;2.00;;;18.40;63.60;;;;;;5041837;28;20099;-84
2021/05/11 12:59:43;;;;;;;2.72;1.65;;;18.40;63.40;;;;;;5040925;28;20048;-86
2021/05/11 13:05:03;;;;;;;3.72;2.15;;;18.30;63.70;;;;;;5038734;28;20033;-85
2021/05/11 13:25:52;;;;;;;3.33;1.98;;;18.50;64.40;;;;;;5039767;28;20695;-85
2021/05/11 13:28:28;;;;;;;4.13;2.10;;;18.50;64.50;;;;;;5022673;28;20363;-85
2021/05/11 13:31:09;;;;;;;4.95;2.45;;;18.40;64.60;;;;;;5041664;28;20024;-85
2021/05/11 13:33:44;;;;;;;3.13;1.83;;;18.30;64.70;;;;;;5023294;28;20059;-86
2021/05/11 13:36:09;;;;;;;5.28;2.97;;;18.40;65.00;;;;;;5040727;28;20100;-86
2021/05/11 13:38:35;;;;;;;3.20;2.15;;;18.20;65.20;;;;;;5041873;28;20108;-86
2021/05/11 13:41:01;;;;;;;3.63;1.90;;;18.10;65.40;;;;;;5037818;28;20037;-87
2021/05/11 13:43:29;;;;;;;3.85;2.13;;;18.10;65.50;;;;;;5040291;28;20516;-87
2021/05/11 13:45:55;;;;;;;2.78;2.25;;;18.10;65.50;;;;;;5037743;28;20033;-86
2021/05/11 13:53:15;;;;;;;3.38;2.30;;;18.10;65.80;;;;;;5037097;28;20087;-85
2021/05/11 13:55:54;;;;;;;3.28;2.47;;;18.10;66.20;;;;;;5047749;28;20013;-85
2021/05/11 14:03:48;;;;;;;4.22;2.80;;;17.80;67.40;;;;;;5036495;28;20111;-86
2021/05/11 14:06:13;;;;;;;3.88;2.65;;;17.70;68.00;;;;;;5049862;28;20124;-87
2021/05/11 14:08:39;;;;;;;5.32;2.80;;;17.60;68.40;;;;;;5039551;28;20037;-87
2021/05/11 14:11:04;;;;;;;4.20;2.50;;;17.50;68.70;;;;;;5047045;28;20032;-87
2021/05/11 14:13:30;;;;;;;4.30;2.70;;;17.60;68.60;;;;;;5041459;28;20044;-86
2021/05/11 14:15:56;;;;;;;4.15;2.53;;;17.60;68.30;;;;;;5030936;28;20021;-87
2021/05/11 14:18:22;;;;;;;4.07;2.00;;;17.70;68.10;;;;;;5043282;28;20052;-86
2021/05/11 14:20:47;;;;;;;8.52;3.92;;;17.70;68.00;;;;;;5035187;28;20048;-88
2021/05/11 14:23:13;;;;;;;6.68;3.70;;;17.60;68.70;;;;;;5045902;28;20037;-85
2021/05/11 14:25:38;;;;;;;3.33;2.85;;;17.50;69.30;;;;;;5042412;28;20025;-85
2021/05/11 14:28:04;;;;;;;3.65;2.00;;;17.40;70.00;;;;;;5023886;28;20056;-85
2021/05/11 14:30:30;;;;;;;3.55;2.67;;;17.40;70.00;;;;;;5045173;28;20100;-85
2021/05/11 14:32:55;;;;;;;4.90;2.58;;;17.30;70.30;;;;;;5045178;28;20029;-87
2021/05/11 14:35:21;;;;;;;5.40;3.42;;;17.40;70.30;;;;;;5029265;28;20025;-89
2021/05/11 14:37:46;;;;;;;7.20;4.53;;;17.30;70.40;;;;;;5045055;28;20030;-87
2021/05/11 14:40:13;;;;;;;6.43;4.00;;;17.50;70.30;;;;;;5037858;28;20060;-86
2021/05/11 14:42:38;;;;;;;4.30;2.90;;;17.40;70.30;;;;;;5034989;28;20025;-87
2021/05/11 14:45:05;;;;;;;4.90;3.15;;;17.40;70.30;;;;;;5038875;28;20345;-86
2021/05/11 14:47:32;;;;;;;3.42;2.75;;;17.40;70.50;;;;;;5037650;28;20033;-84
2021/05/11 14:49:58;;;;;;;3.50;2.20;;;17.40;70.60;;;;;;5021488;28;20071;-84
2021/05/11 14:52:26;;;;;;;4.35;2.80;;;17.40;70.60;;;;;;5035668;28;20037;-84
2021/05/11 14:54:51;;;;;;;4.95;3.20;;;17.40;70.50;;;;;;5038127;28;20064;-85
2021/05/11 14:57:17;;;;;;;4.43;2.88;;;17.50;70.50;;;;;;5035965;28;20033;-86
2021/05/11 14:59:42;;;;;;;4.88;2.60;;;17.50;70.40;;;;;;5039269;28;20025;-84
2021/05/11 15:02:12;;;;;;;2.85;2.53;;;17.50;70.60;;;;;;5033898;28;20074;-85
2021/05/11 15:04:37;;;;;;;4.32;3.15;;;17.50;70.60;;;;;;5018319;28;20100;-85
2021/05/11 15:07:03;;;;;;;4.85;2.80;;;17.50;70.70;;;;;;5038397;28;20038;-86
2021/05/11 15:09:28;;;;;;;2.95;2.63;;;17.50;70.60;;;;;;5047027;28;20104;-86
2021/05/11 15:11:54;;;;;;;3.97;2.55;;;17.60;70.40;;;;;;5047818;28;20047;-86
2021/05/11 15:14:19;;;;;;;4.82;3.63;;;17.60;70.30;;;;;;5033195;28;20025;-86
2021/05/11 15:16:46;;;;;;;3.80;3.40;;;17.70;70.30;;;;;;5035084;28;20024;-87
2021/05/11 15:19:12;;;;;;;5.38;4.13;;;17.50;70.60;;;;;;5044532;28;20470;-86
2021/05/11 15:21:38;;;;;;;4.80;3.90;;;17.40;71.10;;;;;;5044651;28;20116;-85
2021/05/11 15:24:06;;;;;;;4.63;3.97;;;17.40;71.40;;;;;;5045018;28;20104;-86
2021/05/11 15:26:32;;;;;;;5.25;4.30;;;17.30;71.70;;;;;;5018554;28;20027;-85
2021/05/11 15:28:59;;;;;;;5.63;4.30;;;17.20;71.90;;;;;;5042995;28;20017;-85
2021/05/11 15:31:25;;;;;;;4.72;4.30;;;17.20;72.10;;;;;;5047181;28;20103;-87
2021/05/11 15:33:55;;;;;;;3.67;3.25;;;17.10;72.40;;;;;;5047527;28;20163;-86
2021/05/11 15:36:21;;;;;;;4.43;4.00;;;17.10;72.40;;;;;;5047444;28;20124;-85
2021/05/11 15:38:47;;;;;;;6.60;5.70;;;17.00;72.70;;;;;;5025641;28;20494;-85
2021/05/11 15:41:12;;;;;;;5.78;4.82;;;17.00;73.40;;;;;;5036152;28;20033;-86
2021/05/11 15:43:38;;;;;;;5.15;4.50;;;16.80;73.70;;;;;;5045025;28;20108;-86
2021/05/11 15:46:03;;;;;;;5.85;4.28;;;16.80;73.80;;;;;;5042902;28;20116;-85
2021/05/11 15:48:29;;;;;;;4.35;3.95;;;16.90;73.40;;;;;;5027143;28;20021;-86
2021/05/11 15:50:56;;;;;;;4.30;3.75;;;17.10;73.20;;;;;;5027073;28;20511;-85
2021/05/11 15:53:21;;;;;;;4.97;4.25;;;17.10;73.20;;;;;;5045811;28;20033;-86
2021/05/11 15:55:48;;;;;;;4.32;3.92;;;17.10;73.20;;;;;;5020596;28;20017;-87
2021/05/11 15:58:17;;;;;;;4.82;4.32;;;17.20;72.90;;;;;;5035781;28;20065;-85
2021/05/11 16:00:46;;;;;;;6.57;4.90;;;17.30;72.50;;;;;;5038056;28;20120;-85
2021/05/11 16:03:12;;;;;;;4.38;3.55;;;17.30;72.20;;;;;;5043432;28;20033;-84
2021/05/11 16:05:39;;;;;;;3.92;3.53;;;17.30;72.00;;;;;;5041526;28;20018;-85
2021/05/11 16:08:06;;;;;;;4.72;4.20;;;17.40;71.80;;;;;;5043568;28;20033;-85
2021/05/11 16:10:33;;;;;;;5.47;4.00;;;17.50;71.70;;;;;;5039099;28;20026;-85
2021/05/11 16:12:59;;;;;;;4.03;3.55;;;17.60;71.50;;;;;;5030370;28;20065;-84
2021/05/11 16:15:25;;;;;;;5.13;4.00;;;17.60;71.20;;;;;;5046313;28;20021;-86
2021/05/11 16:17:50;;;;;;;3.13;2.78;;;17.60;71.10;;;;;;5047408;28;20036;-85
2021/05/11 16:20:16;;;;;;;3.90;3.15;;;17.60;71.10;;;;;;5047340;28;20040;-85
2021/05/11 16:22:42;;;;;;;4.72;3.95;;;17.60;71.30;;;;;;5038618;28;20108;-85
2021/05/11 16:25:10;;;;;;;4.45;3.67;;;17.60;71.40;;;;;;5043519;28;20092;-85
2021/05/11 16:27:38;;;;;;;4.72;4.25;;;17.60;71.50;;;;;;5038030;28;20060;-86
2021/05/11 16:30:05;;;;;;;5.47;4.22;;;17.60;71.50;;;;;;5020477;28;20834;-85
2021/05/11 16:32:30;;;;;;;5.53;3.95;;;17.50;71.60;;;;;;5038149;28;20392;-86
2021/05/11 16:34:56;;;;;;;4.75;4.05;;;17.50;71.60;;;;;;5030885;28;20036;-84
2021/05/11 16:37:22;;;;;;;4.40;3.67;;;17.50;71.70;;;;;;5023180;28;20107;-85
2021/05/11 16:39:47;;;;;;;5.15;4.00;;;17.60;71.70;;;;;;5039974;28;20518;-85
2021/05/11 16:42:13;;;;;;;4.57;4.15;;;17.60;71.80;;;;;;5044798;28;20495;-86
2021/05/11 16:44:38;;;;;;;5.50;3.88;;;17.60;71.80;;;;;;5051117;28;20668;-85
2021/05/11 16:47:04;;;;;;;4.43;3.75;;;17.60;71.80;;;;;;5046667;28;20344;-86
2021/05/11 16:49:30;;;;;;;4.97;4.30;;;17.60;71.80;;;;;;5017957;28;20015;-86
2021/05/11 16:51:56;;;;;;;3.40;3.10;;;17.60;71.80;;;;;;5043507;28;20021;-85
2021/05/11 16:54:22;;;;;;;5.30;4.13;;;17.60;71.90;;;;;;5044700;28;20647;-84
2021/05/11 16:56:48;;;;;;;4.15;3.72;;;17.60;72.00;;;;;;5041746;28;20217;-84
2021/05/11 16:59:14;;;;;;;4.93;3.88;;;17.60;72.10;;;;;;5045678;28;20033;-84
2021/05/11 17:01:40;;;;;;;4.68;3.47;;;17.60;72.20;;;;;;5036849;28;20041;-85
2021/05/11 17:04:06;;;;;;;4.65;3.90;;;17.60;72.20;;;;;;5041299;28;20036;-86